sensor_id;sensor_type;location;lat;lon;timestamp;temperature;humidity
67192;HTU21D;54120;53.504;49.426;2023-07-30T00:00:58;20.95;77.18
67192;HTU21D;54120;53.504;49.426;2023-07-30T00:03:24;20.94;77.24
67192;HTU21D;54120;53.504;49.426;2023-07-30T00:05:54;20.90;77.82
67192;HTU21D;54120;53.504;49.426;2023-07-30T00:08:21;20.80;78.27
67192;HTU21D;54120;53.504;49.426;2023-07-30T00:10:47;20.79;78.25
67192;HTU21D;54120;53.504;49.426;2023-07-30T00:13:13;20.80;78.25
67192;HTU21D;54120;53.504;49.426;2023-07-30T00:15:39;20.76;78.55
67192;HTU21D;54120;53.504;49.426;2023-07-30T00:18:05;20.71;78.80
67192;HTU21D;54120;53.504;49.426;2023-07-30T00:20:31;20.72;78.69
67192;HTU21D;54120;53.504;49.426;2023-07-30T00:22:57;20.66;79.16
67192;HTU21D;54120;53.504;49.426;2023-07-30T00:25:22;20.57;80.10
67192;HTU21D;54120;53.504;49.426;2023-07-30T00:27:48;20.44;80.71
67192;HTU21D;54120;53.504;49.426;2023-07-30T00:30:15;20.40;80.81
67192;HTU21D;54120;53.504;49.426;2023-07-30T00:32:41;20.21;82.51
67192;HTU21D;54120;53.504;49.426;2023-07-30T00:35:12;20.17;82.64
67192;HTU21D;54120;53.504;49.426;2023-07-30T00:37:38;20.07;82.78
67192;HTU21D;54120;53.504;49.426;2023-07-30T00:40:05;19.95;83.50
67192;HTU21D;54120;53.504;49.426;2023-07-30T00:42:31;19.97;83.51
67192;HTU21D;54120;53.504;49.426;2023-07-30T00:44:57;20.03;82.97
67192;HTU21D;54120;53.504;49.426;2023-07-30T00:47:23;20.11;82.60
67192;HTU21D;54120;53.504;49.426;2023-07-30T00:49:50;20.15;82.18
67192;HTU21D;54120;53.504;49.426;2023-07-30T00:52:18;20.12;82.03
67192;HTU21D;54120;53.504;49.426;2023-07-30T00:54:45;20.13;82.05
67192;HTU21D;54120;53.504;49.426;2023-07-30T00:57:11;20.16;82.29
67192;HTU21D;54120;53.504;49.426;2023-07-30T00:59:37;20.20;81.93
67192;HTU21D;54120;53.504;49.426;2023-07-30T01:02:04;20.22;81.27
67192;HTU21D;54120;53.504;49.426;2023-07-30T01:04:30;20.18;81.30
67192;HTU21D;54120;53.504;49.426;2023-07-30T01:06:56;20.21;80.94
67192;HTU21D;54120;53.504;49.426;2023-07-30T01:09:23;20.24;80.96
67192;HTU21D;54120;53.504;49.426;2023-07-30T01:11:49;20.27;80.56
67192;HTU21D;54120;53.504;49.426;2023-07-30T01:14:17;20.32;80.43
67192;HTU21D;54120;53.504;49.426;2023-07-30T01:16:44;20.33;80.36
67192;HTU21D;54120;53.504;49.426;2023-07-30T01:19:10;20.34;80.27
67192;HTU21D;54120;53.504;49.426;2023-07-30T01:21:37;20.41;80.13
67192;HTU21D;54120;53.504;49.426;2023-07-30T01:24:03;20.42;79.87
67192;HTU21D;54120;53.504;49.426;2023-07-30T01:26:44;20.47;79.48
67192;HTU21D;54120;53.504;49.426;2023-07-30T01:29:21;20.55;79.17
67192;HTU21D;54120;53.504;49.426;2023-07-30T01:31:55;20.49;79.24
67192;HTU21D;54120;53.504;49.426;2023-07-30T01:34:24;20.46;79.34
67192;HTU21D;54120;53.504;49.426;2023-07-30T01:36:53;20.50;78.92
67192;HTU21D;54120;53.504;49.426;2023-07-30T01:39:20;20.64;78.33
67192;HTU21D;54120;53.504;49.426;2023-07-30T01:41:47;20.81;77.58
67192;HTU21D;54120;53.504;49.426;2023-07-30T01:44:13;20.92;77.13
67192;HTU21D;54120;53.504;49.426;2023-07-30T01:46:39;21.09;76.34
67192;HTU21D;54120;53.504;49.426;2023-07-30T01:49:05;21.40;75.09
67192;HTU21D;54120;53.504;49.426;2023-07-30T01:51:31;22.37;71.13
67192;HTU21D;54120;53.504;49.426;2023-07-30T01:53:57;23.39;67.28
67192;HTU21D;54120;53.504;49.426;2023-07-30T01:56:23;24.40;63.18
67192;HTU21D;54120;53.504;49.426;2023-07-30T01:58:49;25.04;61.34
67192;HTU21D;54120;53.504;49.426;2023-07-30T02:01:15;26.17;57.08
67192;HTU21D;54120;53.504;49.426;2023-07-30T02:03:41;26.39;56.36
67192;HTU21D;54120;53.504;49.426;2023-07-30T02:06:07;27.16;54.17
67192;HTU21D;54120;53.504;49.426;2023-07-30T02:08:34;27.69;52.71
67192;HTU21D;54120;53.504;49.426;2023-07-30T02:10:59;27.98;51.57
67192;HTU21D;54120;53.504;49.426;2023-07-30T02:13:26;28.14;50.73
67192;HTU21D;54120;53.504;49.426;2023-07-30T02:15:52;28.56;49.89
67192;HTU21D;54120;53.504;49.426;2023-07-30T02:18:18;28.63;49.42
67192;HTU21D;54120;53.504;49.426;2023-07-30T02:20:44;28.71;49.29
67192;HTU21D;54120;53.504;49.426;2023-07-30T02:23:10;28.91;48.68
67192;HTU21D;54120;53.504;49.426;2023-07-30T02:25:37;29.66;46.91
67192;HTU21D;54120;53.504;49.426;2023-07-30T02:28:03;30.39;44.41
67192;HTU21D;54120;53.504;49.426;2023-07-30T02:30:30;29.91;45.70
67192;HTU21D;54120;53.504;49.426;2023-07-30T02:32:58;29.28;47.30
67192;HTU21D;54120;53.504;49.426;2023-07-30T02:35:24;29.65;46.79
67192;HTU21D;54120;53.504;49.426;2023-07-30T02:37:50;30.52;44.67
67192;HTU21D;54120;53.504;49.426;2023-07-30T02:40:16;30.67;44.22
67192;HTU21D;54120;53.504;49.426;2023-07-30T02:42:42;30.71;44.01
67192;HTU21D;54120;53.504;49.426;2023-07-30T02:45:08;31.58;42.00
67192;HTU21D;54120;53.504;49.426;2023-07-30T02:47:34;32.11;40.75
67192;HTU21D;54120;53.504;49.426;2023-07-30T02:50:01;32.90;39.15
67192;HTU21D;54120;53.504;49.426;2023-07-30T02:52:27;31.89;40.75
67192;HTU21D;54120;53.504;49.426;2023-07-30T02:54:53;31.42;42.37
67192;HTU21D;54120;53.504;49.426;2023-07-30T02:57:19;31.27;42.49
67192;HTU21D;54120;53.504;49.426;2023-07-30T02:59:45;31.64;41.63
67192;HTU21D;54120;53.504;49.426;2023-07-30T03:02:11;32.02;40.80
67192;HTU21D;54120;53.504;49.426;2023-07-30T03:04:37;33.05;38.81
67192;HTU21D;54120;53.504;49.426;2023-07-30T03:07:04;33.03;38.34
67192;HTU21D;54120;53.504;49.426;2023-07-30T03:09:30;33.02;38.48
67192;HTU21D;54120;53.504;49.426;2023-07-30T03:11:56;33.28;38.16
67192;HTU21D;54120;53.504;49.426;2023-07-30T03:14:22;32.67;39.23
67192;HTU21D;54120;53.504;49.426;2023-07-30T03:16:49;32.50;39.68
67192;HTU21D;54120;53.504;49.426;2023-07-30T03:19:15;32.41;39.85
67192;HTU21D;54120;53.504;49.426;2023-07-30T03:21:41;32.60;39.76
67192;HTU21D;54120;53.504;49.426;2023-07-30T03:24:08;32.41;40.35
67192;HTU21D;54120;53.504;49.426;2023-07-30T03:26:34;32.34;40.30
67192;HTU21D;54120;53.504;49.426;2023-07-30T03:29:00;32.97;38.56
67192;HTU21D;54120;53.504;49.426;2023-07-30T03:31:26;31.59;41.81
67192;HTU21D;54120;53.504;49.426;2023-07-30T03:33:54;31.38;42.74
67192;HTU21D;54120;53.504;49.426;2023-07-30T03:36:20;32.22;40.41
67192;HTU21D;54120;53.504;49.426;2023-07-30T03:38:46;32.02;41.11
67192;HTU21D;54120;53.504;49.426;2023-07-30T03:41:12;31.85;41.59
67192;HTU21D;54120;53.504;49.426;2023-07-30T03:43:38;31.88;41.60
67192;HTU21D;54120;53.504;49.426;2023-07-30T03:46:04;32.02;41.77
67192;HTU21D;54120;53.504;49.426;2023-07-30T03:48:30;33.31;38.71
67192;HTU21D;54120;53.504;49.426;2023-07-30T03:50:56;34.02;36.82
67192;HTU21D;54120;53.504;49.426;2023-07-30T03:53:22;34.90;35.28
67192;HTU21D;54120;53.504;49.426;2023-07-30T03:55:48;34.39;36.16
67192;HTU21D;54120;53.504;49.426;2023-07-30T03:58:15;33.90;37.65
67192;HTU21D;54120;53.504;49.426;2023-07-30T04:00:41;35.63;33.96
67192;HTU21D;54120;53.504;49.426;2023-07-30T04:03:07;36.16;33.01
67192;HTU21D;54120;53.504;49.426;2023-07-30T04:05:33;35.54;34.03
67192;HTU21D;54120;53.504;49.426;2023-07-30T04:07:59;34.70;35.56
67192;HTU21D;54120;53.504;49.426;2023-07-30T04:10:25;35.79;34.22
67192;HTU21D;54120;53.504;49.426;2023-07-30T04:12:51;35.08;34.96
67192;HTU21D;54120;53.504;49.426;2023-07-30T04:15:17;35.24;34.46
67192;HTU21D;54120;53.504;49.426;2023-07-30T04:17:43;35.31;35.40
67192;HTU21D;54120;53.504;49.426;2023-07-30T04:20:09;35.71;34.36
67192;HTU21D;54120;53.504;49.426;2023-07-30T04:22:36;36.74;32.73
67192;HTU21D;54120;53.504;49.426;2023-07-30T04:25:03;35.53;34.08
67192;HTU21D;54120;53.504;49.426;2023-07-30T04:27:29;35.78;33.69
67192;HTU21D;54120;53.504;49.426;2023-07-30T04:29:56;35.39;34.96
67192;HTU21D;54120;53.504;49.426;2023-07-30T04:32:22;34.88;35.69
67192;HTU21D;54120;53.504;49.426;2023-07-30T04:34:48;35.59;34.15
67192;HTU21D;54120;53.504;49.426;2023-07-30T04:37:14;34.71;35.86
67192;HTU21D;54120;53.504;49.426;2023-07-30T04:39:40;35.79;34.70
67192;HTU21D;54120;53.504;49.426;2023-07-30T04:42:06;36.09;34.08
67192;HTU21D;54120;53.504;49.426;2023-07-30T04:44:32;37.86;30.93
67192;HTU21D;54120;53.504;49.426;2023-07-30T04:46:58;37.22;31.47
67192;HTU21D;54120;53.504;49.426;2023-07-30T04:49:24;36.12;33.34
67192;HTU21D;54120;53.504;49.426;2023-07-30T04:51:50;35.86;33.99
67192;HTU21D;54120;53.504;49.426;2023-07-30T04:54:16;37.22;31.86
67192;HTU21D;54120;53.504;49.426;2023-07-30T04:56:42;39.08;28.61
67192;HTU21D;54120;53.504;49.426;2023-07-30T04:59:08;37.87;30.72
67192;HTU21D;54120;53.504;49.426;2023-07-30T05:01:34;36.74;32.09
67192;HTU21D;54120;53.504;49.426;2023-07-30T05:04:00;36.26;33.02
67192;HTU21D;54120;53.504;49.426;2023-07-30T05:06:26;36.42;33.25
67192;HTU21D;54120;53.504;49.426;2023-07-30T05:08:52;34.69;36.56
67192;HTU21D;54120;53.504;49.426;2023-07-30T05:11:18;34.34;37.77
67192;HTU21D;54120;53.504;49.426;2023-07-30T05:13:44;35.92;33.90
67192;HTU21D;54120;53.504;49.426;2023-07-30T05:16:10;35.13;35.69
67192;HTU21D;54120;53.504;49.426;2023-07-30T05:18:36;35.93;33.79
67192;HTU21D;54120;53.504;49.426;2023-07-30T05:21:02;36.62;32.73
67192;HTU21D;54120;53.504;49.426;2023-07-30T05:23:28;37.55;30.37
67192;HTU21D;54120;53.504;49.426;2023-07-30T05:25:54;36.21;34.34
67192;HTU21D;54120;53.504;49.426;2023-07-30T05:28:20;34.63;36.34
67192;HTU21D;54120;53.504;49.426;2023-07-30T05:30:47;36.24;34.08
67192;HTU21D;54120;53.504;49.426;2023-07-30T05:33:12;38.16;29.71
67192;HTU21D;54120;53.504;49.426;2023-07-30T05:35:38;37.44;31.12
67192;HTU21D;54120;53.504;49.426;2023-07-30T05:38:04;37.81;30.95
67192;HTU21D;54120;53.504;49.426;2023-07-30T05:40:31;36.59;32.86
67192;HTU21D;54120;53.504;49.426;2023-07-30T05:42:57;37.14;31.25
67192;HTU21D;54120;53.504;49.426;2023-07-30T05:45:23;37.73;30.50
67192;HTU21D;54120;53.504;49.426;2023-07-30T05:47:49;37.81;30.36
67192;HTU21D;54120;53.504;49.426;2023-07-30T05:50:15;37.95;30.64
67192;HTU21D;54120;53.504;49.426;2023-07-30T05:52:41;36.37;33.01
67192;HTU21D;54120;53.504;49.426;2023-07-30T05:55:07;33.37;39.01
67192;HTU21D;54120;53.504;49.426;2023-07-30T05:57:33;32.70;41.17
67192;HTU21D;54120;53.504;49.426;2023-07-30T05:59:59;32.40;41.95
67192;HTU21D;54120;53.504;49.426;2023-07-30T06:02:25;30.86;45.72
67192;HTU21D;54120;53.504;49.426;2023-07-30T06:04:51;31.13;45.34
67192;HTU21D;54120;53.504;49.426;2023-07-30T06:07:17;30.91;45.50
67192;HTU21D;54120;53.504;49.426;2023-07-30T06:09:43;29.70;48.48
67192;HTU21D;54120;53.504;49.426;2023-07-30T06:12:11;28.25;52.88
67192;HTU21D;54120;53.504;49.426;2023-07-30T06:14:39;27.70;54.68
67192;HTU21D;54120;53.504;49.426;2023-07-30T06:17:05;27.90;54.77
67192;HTU21D;54120;53.504;49.426;2023-07-30T06:19:31;27.72;54.70
67192;HTU21D;54120;53.504;49.426;2023-07-30T06:21:57;27.69;55.51
67192;HTU21D;54120;53.504;49.426;2023-07-30T06:24:23;28.14;53.90
67192;HTU21D;54120;53.504;49.426;2023-07-30T06:26:49;28.73;52.49
67192;HTU21D;54120;53.504;49.426;2023-07-30T06:29:15;28.62;52.79
67192;HTU21D;54120;53.504;49.426;2023-07-30T06:31:41;28.17;53.52
67192;HTU21D;54120;53.504;49.426;2023-07-30T06:34:07;27.46;56.81
67192;HTU21D;54120;53.504;49.426;2023-07-30T06:36:33;28.09;55.62
67192;HTU21D;54120;53.504;49.426;2023-07-30T06:38:59;28.44;53.68
67192;HTU21D;54120;53.504;49.426;2023-07-30T06:41:25;27.87;54.36
67192;HTU21D;54120;53.504;49.426;2023-07-30T06:43:51;28.10;55.32
67192;HTU21D;54120;53.504;49.426;2023-07-30T06:46:18;28.67;52.57
67192;HTU21D;54120;53.504;49.426;2023-07-30T06:48:44;29.28;50.09
67192;HTU21D;54120;53.504;49.426;2023-07-30T06:51:10;30.50;47.59
67192;HTU21D;54120;53.504;49.426;2023-07-30T06:53:38;31.74;43.61
67192;HTU21D;54120;53.504;49.426;2023-07-30T06:56:04;31.15;45.59
67192;HTU21D;54120;53.504;49.426;2023-07-30T06:58:30;30.33;47.48
67192;HTU21D;54120;53.504;49.426;2023-07-30T07:00:56;29.43;50.55
67192;HTU21D;54120;53.504;49.426;2023-07-30T07:03:22;28.79;52.07
67192;HTU21D;54120;53.504;49.426;2023-07-30T07:05:55;28.19;53.46
67192;HTU21D;54120;53.504;49.426;2023-07-30T07:08:22;27.38;56.23
67192;HTU21D;54120;53.504;49.426;2023-07-30T07:10:48;27.04;57.18
67192;HTU21D;54120;53.504;49.426;2023-07-30T07:13:14;26.85;57.94
67192;HTU21D;54120;53.504;49.426;2023-07-30T07:15:44;26.71;58.41
67192;HTU21D;54120;53.504;49.426;2023-07-30T07:18:10;30.00;48.95
67192;HTU21D;54120;53.504;49.426;2023-07-30T07:20:37;30.92;46.85
67192;HTU21D;54120;53.504;49.426;2023-07-30T07:23:03;33.74;39.83
67192;HTU21D;54120;53.504;49.426;2023-07-30T07:25:29;32.23;42.00
67192;HTU21D;54120;53.504;49.426;2023-07-30T07:27:55;31.12;45.39
67192;HTU21D;54120;53.504;49.426;2023-07-30T07:30:22;30.15;46.72
67192;HTU21D;54120;53.504;49.426;2023-07-30T07:32:48;29.03;50.84
67192;HTU21D;54120;53.504;49.426;2023-07-30T07:35:19;28.59;51.44
67192;HTU21D;54120;53.504;49.426;2023-07-30T07:37:46;28.32;53.29
67192;HTU21D;54120;53.504;49.426;2023-07-30T07:40:12;28.03;53.48
67192;HTU21D;54120;53.504;49.426;2023-07-30T07:42:38;28.18;53.27
67192;HTU21D;54120;53.504;49.426;2023-07-30T07:45:06;28.68;51.66
67192;HTU21D;54120;53.504;49.426;2023-07-30T07:47:32;28.83;50.52
67192;HTU21D;54120;53.504;49.426;2023-07-30T07:49:58;29.24;50.27
67192;HTU21D;54120;53.504;49.426;2023-07-30T07:52:25;31.33;45.03
67192;HTU21D;54120;53.504;49.426;2023-07-30T07:54:51;32.26;42.79
67192;HTU21D;54120;53.504;49.426;2023-07-30T07:57:17;30.17;46.73
67192;HTU21D;54120;53.504;49.426;2023-07-30T07:59:43;28.28;52.51
67192;HTU21D;54120;53.504;49.426;2023-07-30T08:02:11;27.73;54.05
67192;HTU21D;54120;53.504;49.426;2023-07-30T08:04:38;28.03;53.07
67192;HTU21D;54120;53.504;49.426;2023-07-30T08:07:04;28.18;52.38
67192;HTU21D;54120;53.504;49.426;2023-07-30T08:09:31;28.39;50.55
67192;HTU21D;54120;53.504;49.426;2023-07-30T08:11:57;28.31;51.02
67192;HTU21D;54120;53.504;49.426;2023-07-30T08:14:23;28.95;49.80
67192;HTU21D;54120;53.504;49.426;2023-07-30T08:16:49;28.95;49.18
67192;HTU21D;54120;53.504;49.426;2023-07-30T08:19:15;28.57;49.68
67192;HTU21D;54120;53.504;49.426;2023-07-30T08:21:41;28.44;50.82
67192;HTU21D;54120;53.504;49.426;2023-07-30T08:24:07;28.92;50.92
67192;HTU21D;54120;53.504;49.426;2023-07-30T08:26:33;29.58;48.34
67192;HTU21D;54120;53.504;49.426;2023-07-30T08:28:59;29.65;47.88
67192;HTU21D;54120;53.504;49.426;2023-07-30T08:31:25;29.52;46.44
67192;HTU21D;54120;53.504;49.426;2023-07-30T08:33:51;29.02;49.13
67192;HTU21D;54120;53.504;49.426;2023-07-30T08:36:17;29.08;49.73
67192;HTU21D;54120;53.504;49.426;2023-07-30T08:38:43;29.35;48.53
67192;HTU21D;54120;53.504;49.426;2023-07-30T08:41:09;28.88;50.65
67192;HTU21D;54120;53.504;49.426;2023-07-30T08:43:35;29.29;48.82
67192;HTU21D;54120;53.504;49.426;2023-07-30T08:46:01;29.97;47.03
67192;HTU21D;54120;53.504;49.426;2023-07-30T08:48:27;29.36;48.12
67192;HTU21D;54120;53.504;49.426;2023-07-30T08:50:56;29.12;48.34
67192;HTU21D;54120;53.504;49.426;2023-07-30T08:53:26;28.08;51.24
67192;HTU21D;54120;53.504;49.426;2023-07-30T08:55:55;27.99;51.44
67192;HTU21D;54120;53.504;49.426;2023-07-30T08:58:23;28.44;49.65
67192;HTU21D;54120;53.504;49.426;2023-07-30T09:00:54;28.32;50.54
67192;HTU21D;54120;53.504;49.426;2023-07-30T09:03:23;28.34;50.18
67192;HTU21D;54120;53.504;49.426;2023-07-30T09:05:49;28.26;51.01
67192;HTU21D;54120;53.504;49.426;2023-07-30T09:08:17;27.98;51.18
67192;HTU21D;54120;53.504;49.426;2023-07-30T09:10:43;28.18;50.65
67192;HTU21D;54120;53.504;49.426;2023-07-30T09:13:09;28.25;50.75
67192;HTU21D;54120;53.504;49.426;2023-07-30T09:15:37;28.62;49.29
67192;HTU21D;54120;53.504;49.426;2023-07-30T09:18:04;28.14;50.76
67192;HTU21D;54120;53.504;49.426;2023-07-30T09:20:40;27.89;50.98
67192;HTU21D;54120;53.504;49.426;2023-07-30T09:23:08;28.17;49.40
67192;HTU21D;54120;53.504;49.426;2023-07-30T09:25:35;28.48;49.87
67192;HTU21D;54120;53.504;49.426;2023-07-30T09:28:01;28.79;47.33
67192;HTU21D;54120;53.504;49.426;2023-07-30T09:30:28;28.67;48.38
67192;HTU21D;54120;53.504;49.426;2023-07-30T09:32:55;28.49;49.85
67192;HTU21D;54120;53.504;49.426;2023-07-30T09:35:22;28.53;49.31
67192;HTU21D;54120;53.504;49.426;2023-07-30T09:38:01;28.72;48.69
67192;HTU21D;54120;53.504;49.426;2023-07-30T09:40:37;28.80;48.34
67192;HTU21D;54120;53.504;49.426;2023-07-30T09:43:05;28.49;48.83
67192;HTU21D;54120;53.504;49.426;2023-07-30T09:45:35;28.24;49.21
67192;HTU21D;54120;53.504;49.426;2023-07-30T09:48:03;27.91;50.78
67192;HTU21D;54120;53.504;49.426;2023-07-30T09:50:31;27.79;51.73
67192;HTU21D;54120;53.504;49.426;2023-07-30T09:53:01;27.81;51.31
67192;HTU21D;54120;53.504;49.426;2023-07-30T09:55:27;27.82;51.01
67192;HTU21D;54120;53.504;49.426;2023-07-30T09:57:53;28.38;50.50
67192;HTU21D;54120;53.504;49.426;2023-07-30T10:00:20;28.49;49.45
67192;HTU21D;54120;53.504;49.426;2023-07-30T10:02:47;28.19;49.73
67192;HTU21D;54120;53.504;49.426;2023-07-30T10:05:15;28.38;49.85
67192;HTU21D;54120;53.504;49.426;2023-07-30T10:07:47;28.49;49.25
67192;HTU21D;54120;53.504;49.426;2023-07-30T10:10:14;28.42;49.25
67192;HTU21D;54120;53.504;49.426;2023-07-30T10:12:41;28.75;48.83
67192;HTU21D;54120;53.504;49.426;2023-07-30T10:15:09;28.93;47.57
67192;HTU21D;54120;53.504;49.426;2023-07-30T10:17:35;29.36;47.92
67192;HTU21D;54120;53.504;49.426;2023-07-30T10:20:26;28.64;48.69
67192;HTU21D;54120;53.504;49.426;2023-07-30T10:22:54;27.84;50.13
67192;HTU21D;54120;53.504;49.426;2023-07-30T10:25:22;28.11;49.71
67192;HTU21D;54120;53.504;49.426;2023-07-30T10:27:50;28.19;50.44
67192;HTU21D;54120;53.504;49.426;2023-07-30T10:30:19;27.94;50.47
67192;HTU21D;54120;53.504;49.426;2023-07-30T10:35:46;27.47;51.48
67192;HTU21D;54120;53.504;49.426;2023-07-30T10:38:16;27.81;50.40
67192;HTU21D;54120;53.504;49.426;2023-07-30T10:40:59;27.55;51.38
67192;HTU21D;54120;53.504;49.426;2023-07-30T10:43:30;27.50;52.17
67192;HTU21D;54120;53.504;49.426;2023-07-30T10:45:57;27.88;50.40
67192;HTU21D;54120;53.504;49.426;2023-07-30T10:48:47;27.75;51.11
67192;HTU21D;54120;53.504;49.426;2023-07-30T10:51:15;27.93;51.24
67192;HTU21D;54120;53.504;49.426;2023-07-30T10:53:43;28.02;51.05
67192;HTU21D;54120;53.504;49.426;2023-07-30T10:56:09;28.25;50.62
67192;HTU21D;54120;53.504;49.426;2023-07-30T10:58:36;27.78;51.59
67192;HTU21D;54120;53.504;49.426;2023-07-30T11:01:04;27.80;52.26
67192;HTU21D;54120;53.504;49.426;2023-07-30T11:03:31;28.01;51.73
67192;HTU21D;54120;53.504;49.426;2023-07-30T11:05:58;27.79;53.00
67192;HTU21D;54120;53.504;49.426;2023-07-30T11:08:40;27.20;55.81
67192;HTU21D;54120;53.504;49.426;2023-07-30T11:11:09;27.09;59.16
67192;HTU21D;54120;53.504;49.426;2023-07-30T11:16:10;26.73;60.51
67192;HTU21D;54120;53.504;49.426;2023-07-30T11:18:37;26.97;61.65
67192;HTU21D;54120;53.504;49.426;2023-07-30T11:21:04;27.23;61.09
67192;HTU21D;54120;53.504;49.426;2023-07-30T11:23:30;27.50;59.10
67192;HTU21D;54120;53.504;49.426;2023-07-30T11:25:56;27.74;58.31
67192;HTU21D;54120;53.504;49.426;2023-07-30T11:33:29;27.96;56.45
67192;HTU21D;54120;53.504;49.426;2023-07-30T11:35:56;27.98;56.79
67192;HTU21D;54120;53.504;49.426;2023-07-30T11:38:26;28.44;55.16
67192;HTU21D;54120;53.504;49.426;2023-07-30T11:40:53;28.73;53.98
67192;HTU21D;54120;53.504;49.426;2023-07-30T11:43:23;28.11;54.20
67192;HTU21D;54120;53.504;49.426;2023-07-30T11:46:15;27.97;55.07
67192;HTU21D;54120;53.504;49.426;2023-07-30T11:48:44;27.45;55.44
67192;HTU21D;54120;53.504;49.426;2023-07-30T11:51:24;26.98;57.58
67192;HTU21D;54120;53.504;49.426;2023-07-30T11:56:28;26.75;61.02
67192;HTU21D;54120;53.504;49.426;2023-07-30T11:59:04;26.37;62.08
67192;HTU21D;54120;53.504;49.426;2023-07-30T12:01:33;26.04;64.37
67192;HTU21D;54120;53.504;49.426;2023-07-30T12:04:01;25.84;67.18
67192;HTU21D;54120;53.504;49.426;2023-07-30T12:06:57;25.62;65.98
67192;HTU21D;54120;53.504;49.426;2023-07-30T12:09:24;25.58;65.94
67192;HTU21D;54120;53.504;49.426;2023-07-30T12:11:58;25.91;64.79
67192;HTU21D;54120;53.504;49.426;2023-07-30T12:14:27;26.25;62.27
67192;HTU21D;54120;53.504;49.426;2023-07-30T12:17:00;26.56;60.61
67192;HTU21D;54120;53.504;49.426;2023-07-30T12:19:27;26.79;58.53
67192;HTU21D;54120;53.504;49.426;2023-07-30T12:21:53;27.02;58.83
67192;HTU21D;54120;53.504;49.426;2023-07-30T12:24:19;27.25;58.22
67192;HTU21D;54120;53.504;49.426;2023-07-30T12:26:46;27.26;57.32
67192;HTU21D;54120;53.504;49.426;2023-07-30T12:29:13;27.32;56.37
67192;HTU21D;54120;53.504;49.426;2023-07-30T12:31:39;27.21;56.55
67192;HTU21D;54120;53.504;49.426;2023-07-30T12:34:05;26.97;55.55
67192;HTU21D;54120;53.504;49.426;2023-07-30T12:36:31;26.92;55.72
67192;HTU21D;54120;53.504;49.426;2023-07-30T12:38:57;27.13;55.58
67192;HTU21D;54120;53.504;49.426;2023-07-30T12:41:23;27.71;54.31
67192;HTU21D;54120;53.504;49.426;2023-07-30T12:43:55;28.20;51.40
67192;HTU21D;54120;53.504;49.426;2023-07-30T12:46:25;28.83;50.00
67192;HTU21D;54120;53.504;49.426;2023-07-30T12:48:56;29.05;50.16
67192;HTU21D;54120;53.504;49.426;2023-07-30T12:51:22;29.32;49.89
67192;HTU21D;54120;53.504;49.426;2023-07-30T12:53:48;29.15;47.13
67192;HTU21D;54120;53.504;49.426;2023-07-30T12:56:15;28.87;48.41
67192;HTU21D;54120;53.504;49.426;2023-07-30T12:58:41;28.82;48.07
67192;HTU21D;54120;53.504;49.426;2023-07-30T13:01:07;29.03;47.60
67192;HTU21D;54120;53.504;49.426;2023-07-30T13:03:33;28.93;47.95
67192;HTU21D;54120;53.504;49.426;2023-07-30T13:05:59;28.97;48.07
67192;HTU21D;54120;53.504;49.426;2023-07-30T13:08:25;28.19;50.59
67192;HTU21D;54120;53.504;49.426;2023-07-30T13:10:52;27.68;49.85
67192;HTU21D;54120;53.504;49.426;2023-07-30T13:13:18;26.99;52.04
67192;HTU21D;54120;53.504;49.426;2023-07-30T13:15:44;26.83;51.44
67192;HTU21D;54120;53.504;49.426;2023-07-30T13:18:10;26.69;52.15
67192;HTU21D;54120;53.504;49.426;2023-07-30T13:20:36;26.87;51.70
67192;HTU21D;54120;53.504;49.426;2023-07-30T13:23:02;26.99;51.85
67192;HTU21D;54120;53.504;49.426;2023-07-30T13:25:28;26.90;51.31
67192;HTU21D;54120;53.504;49.426;2023-07-30T13:27:54;26.79;51.79
67192;HTU21D;54120;53.504;49.426;2023-07-30T13:30:21;26.81;52.08
67192;HTU21D;54120;53.504;49.426;2023-07-30T13:32:47;26.89;52.10
67192;HTU21D;54120;53.504;49.426;2023-07-30T13:35:13;26.73;52.95
67192;HTU21D;54120;53.504;49.426;2023-07-30T13:37:39;26.43;53.33
67192;HTU21D;54120;53.504;49.426;2023-07-30T13:40:06;26.15;53.61
67192;HTU21D;54120;53.504;49.426;2023-07-30T13:42:32;25.87;54.57
67192;HTU21D;54120;53.504;49.426;2023-07-30T13:44:58;25.68;54.91
67192;HTU21D;54120;53.504;49.426;2023-07-30T13:47:25;25.53;55.78
67192;HTU21D;54120;53.504;49.426;2023-07-30T13:49:51;25.64;56.04
67192;HTU21D;54120;53.504;49.426;2023-07-30T13:52:19;25.68;55.38
67192;HTU21D;54120;53.504;49.426;2023-07-30T13:54:45;25.83;55.08
67192;HTU21D;54120;53.504;49.426;2023-07-30T13:57:11;25.75;55.56
67192;HTU21D;54120;53.504;49.426;2023-07-30T13:59:37;25.69;56.42
67192;HTU21D;54120;53.504;49.426;2023-07-30T14:02:05;25.62;56.67
67192;HTU21D;54120;53.504;49.426;2023-07-30T14:04:31;25.66;56.53
67192;HTU21D;54120;53.504;49.426;2023-07-30T14:06:57;25.81;56.43
67192;HTU21D;54120;53.504;49.426;2023-07-30T14:09:24;25.61;56.65
67192;HTU21D;54120;53.504;49.426;2023-07-30T14:11:53;25.50;57.00
67192;HTU21D;54120;53.504;49.426;2023-07-30T14:14:19;25.50;57.16
67192;HTU21D;54120;53.504;49.426;2023-07-30T14:16:47;25.50;57.31
67192;HTU21D;54120;53.504;49.426;2023-07-30T14:19:13;25.72;56.57
67192;HTU21D;54120;53.504;49.426;2023-07-30T14:21:39;25.92;56.46
67192;HTU21D;54120;53.504;49.426;2023-07-30T14:24:05;25.94;55.90
67192;HTU21D;54120;53.504;49.426;2023-07-30T14:26:31;25.94;56.16
67192;HTU21D;54120;53.504;49.426;2023-07-30T14:28:58;25.57;57.03
67192;HTU21D;54120;53.504;49.426;2023-07-30T14:31:24;25.37;57.97
67192;HTU21D;54120;53.504;49.426;2023-07-30T14:33:50;25.45;57.61
67192;HTU21D;54120;53.504;49.426;2023-07-30T14:36:16;25.54;58.58
67192;HTU21D;54120;53.504;49.426;2023-07-30T14:38:42;25.43;59.38
67192;HTU21D;54120;53.504;49.426;2023-07-30T14:41:08;25.29;58.48
67192;HTU21D;54120;53.504;49.426;2023-07-30T14:43:35;25.09;58.61
67192;HTU21D;54120;53.504;49.426;2023-07-30T14:46:01;24.90;59.08
67192;HTU21D;54120;53.504;49.426;2023-07-30T14:48:27;24.90;59.32
67192;HTU21D;54120;53.504;49.426;2023-07-30T14:50:54;24.85;59.25
67192;HTU21D;54120;53.504;49.426;2023-07-30T14:53:20;24.82;59.16
67192;HTU21D;54120;53.504;49.426;2023-07-30T14:55:46;24.83;58.95
67192;HTU21D;54120;53.504;49.426;2023-07-30T14:58:12;24.62;61.44
67192;HTU21D;54120;53.504;49.426;2023-07-30T15:00:39;24.44;63.82
67192;HTU21D;54120;53.504;49.426;2023-07-30T15:03:05;24.53;64.23
67192;HTU21D;54120;53.504;49.426;2023-07-30T15:05:32;24.53;64.60
67192;HTU21D;54120;53.504;49.426;2023-07-30T15:08:10;24.53;64.95
67192;HTU21D;54120;53.504;49.426;2023-07-30T15:10:41;24.41;64.84
67192;HTU21D;54120;53.504;49.426;2023-07-30T15:13:07;24.16;65.80
67192;HTU21D;54120;53.504;49.426;2023-07-30T15:15:33;23.88;66.83